Aviation Digital Data Service (ADDS)

Output produced by METARs form (1130 UTC 18 June 2019)
found at http://www.aviationweather.gov/metar/data/
 
Forecast for: KFAR (FARGO , ND, US)
Text: KFAR 181120Z 1812/1912 VRB03KT P6SM BKN050
Forecast period: 1200 to 1800 UTC 18 June 2019
Forecast type: FROM: standard forecast or significant change
Winds: variable direction winds at 3 MPH (3 knots; 1.5 m/s)
Visibility: 6 or more miles 10+ km)
Ceiling: 5000 feet AGL
Clouds: broken clouds at 5000 feet AGL
Weather: no significant weather forecast for this period
Text: FM181800 VRB04KT P6SM VCSH BKN050
Forecast period: 1800 UTC 18 June 2019 to 0000 UTC 19 June 2019
Forecast type: FROM: standard forecast or significant change
Winds: variable direction winds at 5 MPH (4 knots; 2.1 m/s)
Visibility: 6 or more miles 10+ km)
Ceiling: 5000 feet AGL
Clouds: broken clouds at 5000 feet AGL
Weather: VCSH  (showers in vicinity)
Text: FM190000 VRB04KT P6SM SCT100
Forecast period: 0000 to 1200 UTC 19 June 2019
Forecast type: FROM: standard forecast or significant change
Winds: variable direction winds at 5 MPH (4 knots; 2.1 m/s)
Visibility: 6 or more miles 10+ km)
Ceiling: at least 12,000 feet AGL
Clouds: scattered clouds at 10000 feet AGL
Weather: no significant weather forecast for this period